Masury, Ohio
Current Conditions -  °F | °C
As of 12:51 AM on Saturday 25 Oct 2014 (Local Time) from KYNG Reporting Station
Overcast Overcast  
Wind Chill: 49°   Ceiling: 4700
Heat Index: 49°   Visibility: 8mi
Dew Point: 41°   Wind: 3mph
Humidity: 74%   Direction: 230°SW
Pressure: 29.99"   Gusts: NA
Location:  41.21°N, 80.54°W
Report Text: KYNG 250451Z 23003KT 8SM OVC047 09/05 A2999 RMK AO2 SLP157 T00940050 401610006 $
Loading
Personal Weather Stations






























Interactive Weather Map
Tropical Storm Tracking
New forecast layout! Learn more

10-Day Weather Forecast

Advertisements
Track Severe Weather on mobile